createdAt,value
2022-09-23T00:00:46.334Z,4.10
2022-09-23T00:03:33.042Z,3.80
2022-09-23T00:06:10.840Z,3.80
2022-09-23T00:08:40.642Z,4.00
2022-09-23T00:11:13.008Z,3.60
2022-09-23T00:13:44.832Z,4.00
2022-09-23T00:16:17.621Z,3.40
2022-09-23T00:18:46.269Z,3.60
2022-09-23T00:21:15.095Z,4.10
2022-09-23T00:23:44.122Z,3.80
2022-09-23T00:26:16.369Z,3.50
2022-09-23T00:28:46.023Z,3.70
2022-09-23T00:31:24.074Z,4.10
2022-09-23T00:33:58.941Z,4.00
2022-09-23T00:36:29.227Z,3.60
2022-09-23T00:38:58.387Z,4.00
2022-09-23T00:41:27.934Z,4.30
2022-09-23T00:44:01.075Z,3.90
2022-09-23T00:46:39.208Z,4.50
2022-09-23T00:49:18.359Z,4.10
2022-09-23T00:51:54.630Z,4.30
2022-09-23T00:54:25.257Z,4.20
2022-09-23T00:56:55.062Z,4.50
2022-09-23T00:59:24.624Z,4.10
2022-09-23T01:01:56.516Z,3.80
2022-09-23T01:04:27.375Z,3.70
2022-09-23T01:06:55.946Z,3.80
2022-09-23T01:09:25.589Z,3.60
2022-09-23T01:12:34.751Z,4.10
2022-09-23T01:15:44.393Z,3.70
2022-09-23T01:18:37.638Z,4.00
2022-09-23T01:21:48.536Z,3.80
2022-09-23T01:24:38.366Z,4.10
2022-09-23T01:27:13.970Z,3.80
2022-09-23T01:30:12.466Z,3.80
2022-09-23T01:33:14.800Z,3.80
2022-09-23T01:36:07.422Z,3.90
2022-09-23T01:38:44.971Z,3.70
2022-09-23T01:41:45.727Z,4.10
2022-09-23T01:44:43.263Z,4.20
2022-09-23T01:47:27.476Z,4.60
2022-09-23T01:50:44.578Z,5.00
2022-09-23T01:53:21.198Z,4.40
2022-09-23T01:55:57.437Z,4.30
2022-09-23T01:58:51.233Z,3.90
2022-09-23T02:01:56.314Z,4.30
2022-09-23T02:05:00.480Z,3.80
2022-09-23T02:07:33.071Z,3.80
2022-09-23T02:10:25.698Z,4.60
2022-09-23T02:13:05.639Z,4.50
2022-09-23T02:15:50.758Z,4.40
2022-09-23T02:18:26.911Z,4.10
2022-09-23T02:21:00.582Z,4.60
2022-09-23T02:23:55.439Z,4.50
2022-09-23T02:26:41.696Z,4.40
2022-09-23T02:29:31.068Z,3.60
2022-09-23T02:32:24.993Z,4.90
2022-09-23T02:35:14.456Z,4.30
2022-09-23T02:38:30.218Z,4.40
2022-09-23T02:41:06.427Z,4.00
2022-09-23T02:43:46.484Z,4.50
2022-09-23T02:46:15.600Z,4.60
2022-09-23T02:49:03.009Z,4.40
2022-09-23T02:51:34.686Z,4.40
2022-09-23T02:54:05.012Z,4.30
2022-09-23T02:56:35.088Z,4.30
2022-09-23T02:59:04.561Z,5.10
2022-09-23T03:02:07.183Z,4.70
2022-09-23T03:05:05.369Z,4.90
2022-09-23T03:08:13.915Z,4.10
2022-09-23T03:11:06.043Z,4.10
2022-09-23T03:14:05.352Z,4.20
2022-09-23T03:16:50.667Z,4.10
2022-09-23T03:19:24.266Z,4.00
2022-09-23T03:22:35.399Z,4.20
2022-09-23T03:25:09.778Z,4.30
2022-09-23T03:27:39.393Z,4.30
2022-09-23T03:30:09.927Z,3.80
2022-09-23T03:32:38.971Z,3.80
2022-09-23T03:35:08.401Z,4.10
2022-09-23T03:37:44.847Z,4.30
2022-09-23T03:40:16.923Z,4.60
2022-09-23T03:42:49.094Z,5.30
2022-09-23T03:45:26.658Z,4.50
2022-09-23T03:47:55.477Z,4.10
2022-09-23T03:50:24.643Z,4.90
2022-09-23T03:52:53.705Z,4.30
2022-09-23T03:55:22.911Z,3.90
2022-09-23T03:57:51.634Z,4.10
2022-09-23T04:00:20.601Z,4.60
2022-09-23T04:02:50.128Z,4.30
2022-09-23T04:05:19.039Z,4.30
2022-09-23T04:07:49.071Z,4.50
2022-09-23T04:10:17.684Z,4.30
2022-09-23T04:12:46.509Z,4.00
2022-09-23T04:15:15.030Z,4.20
2022-09-23T04:17:43.628Z,4.00
2022-09-23T04:20:12.325Z,3.90
2022-09-23T04:22:41.666Z,3.40
2022-09-23T04:25:10.752Z,4.20
2022-09-23T04:27:39.258Z,4.10
2022-09-23T04:30:09.330Z,3.70
2022-09-23T04:32:38.825Z,3.80
2022-09-23T04:35:08.468Z,3.80
2022-09-23T04:37:37.456Z,4.40
2022-09-23T04:40:08.647Z,4.40
2022-09-23T04:42:37.435Z,4.10
2022-09-23T04:45:06.880Z,4.00
2022-09-23T04:47:35.543Z,3.90
2022-09-23T04:50:04.462Z,4.40
2022-09-23T04:52:33.122Z,4.10
2022-09-23T04:55:02.242Z,3.70
2022-09-23T04:57:31.046Z,3.60
2022-09-23T04:59:59.943Z,3.70
2022-09-23T05:02:28.757Z,3.80
2022-09-23T05:04:58.489Z,3.80
2022-09-23T05:07:27.277Z,4.00
2022-09-23T05:09:55.941Z,3.60
2022-09-23T05:12:24.667Z,4.10
2022-09-23T05:14:53.210Z,4.70
2022-09-23T05:17:21.931Z,3.90
2022-09-23T05:19:50.643Z,3.80
2022-09-23T05:22:19.327Z,3.40
2022-09-23T05:24:48.058Z,3.10
2022-09-23T05:27:16.688Z,4.50
2022-09-23T05:29:45.259Z,3.50
2022-09-23T05:32:15.537Z,4.00
2022-09-23T05:34:44.331Z,3.60
2022-09-23T05:37:13.079Z,2.90
2022-09-23T05:39:41.727Z,3.80
2022-09-23T05:42:12.658Z,3.10
2022-09-23T05:44:41.738Z,3.50
2022-09-23T05:47:10.712Z,3.70
2022-09-23T05:49:58.689Z,3.60
2022-09-23T05:52:28.609Z,3.50
2022-09-23T05:54:57.317Z,3.40
2022-09-23T05:57:26.298Z,3.30
2022-09-23T05:59:55.008Z,3.40
2022-09-23T06:02:23.899Z,3.40
2022-09-23T06:04:52.837Z,4.70
2022-09-23T06:07:21.437Z,3.80
2022-09-23T06:09:50.787Z,5.30
2022-09-23T06:12:19.411Z,3.30
2022-09-23T06:14:48.939Z,4.30
2022-09-23T06:17:17.622Z,3.40
2022-09-23T06:19:46.316Z,4.10
2022-09-23T06:22:17.233Z,3.10
2022-09-23T06:24:46.229Z,3.50
2022-09-23T06:27:15.004Z,2.60
2022-09-23T06:29:44.148Z,2.30
2022-09-23T06:32:12.905Z,3.20
2022-09-23T06:34:50.836Z,2.50
2022-09-23T06:37:21.011Z,2.40
2022-09-23T06:39:50.460Z,3.20
2022-09-23T06:42:19.227Z,2.40
2022-09-23T06:44:47.754Z,2.50
2022-09-23T06:47:16.861Z,2.70
2022-09-23T06:49:45.681Z,2.80
2022-09-23T06:52:14.485Z,2.70
2022-09-23T06:54:43.192Z,2.30
2022-09-23T06:57:12.232Z,2.60
2022-09-23T06:59:42.042Z,3.10
2022-09-23T07:02:11.317Z,2.40
2022-09-23T07:04:40.175Z,2.60
2022-09-23T07:07:10.647Z,2.70
2022-09-23T07:09:39.483Z,2.60
2022-09-23T07:12:08.664Z,2.40
2022-09-23T07:14:37.566Z,2.50
2022-09-23T07:17:06.393Z,2.30
2022-09-23T07:19:35.753Z,2.30
2022-09-23T07:22:05.692Z,2.20
2022-09-23T07:24:34.634Z,2.10
2022-09-23T07:27:03.215Z,2.10
2022-09-23T07:29:42.405Z,2.50
2022-09-23T07:32:14.336Z,2.00
2022-09-23T07:34:44.599Z,2.60
2022-09-23T07:37:15.001Z,2.10
2022-09-23T07:39:44.849Z,2.20
2022-09-23T07:42:14.510Z,2.10
2022-09-23T07:44:48.067Z,2.30
2022-09-23T07:47:18.027Z,2.30
2022-09-23T07:49:46.988Z,2.40
2022-09-23T07:52:15.726Z,2.70
2022-09-23T07:54:47.906Z,2.50
2022-09-23T07:57:16.677Z,2.30
2022-09-23T07:59:46.669Z,2.30
2022-09-23T08:02:16.678Z,3.10
2022-09-23T08:04:46.554Z,3.00
2022-09-23T08:07:15.515Z,3.00
2022-09-23T08:09:44.936Z,2.60
2022-09-23T08:12:19.174Z,2.50
2022-09-23T08:14:48.035Z,3.30
2022-09-23T08:17:17.287Z,3.10
2022-09-23T08:19:45.930Z,3.40
2022-09-23T08:22:16.392Z,4.50
2022-09-23T08:24:45.071Z,2.80
2022-09-23T08:27:14.658Z,2.60
2022-09-23T08:29:43.477Z,2.40
2022-09-23T08:32:12.113Z,3.00
2022-09-23T08:34:40.866Z,2.70
2022-09-23T08:37:11.402Z,2.50
2022-09-23T08:39:40.323Z,2.50
2022-09-23T08:42:24.539Z,2.40
2022-09-23T08:44:59.938Z,2.50
2022-09-23T08:48:16.371Z,3.00
2022-09-23T08:50:52.688Z,3.00
2022-09-23T08:53:36.598Z,3.70
2022-09-23T08:56:18.198Z,3.40
2022-09-23T08:59:07.892Z,2.70
2022-09-23T09:01:44.805Z,2.60
2022-09-23T09:04:39.851Z,2.60
2022-09-23T09:07:34.606Z,2.50
2022-09-23T09:10:18.925Z,2.60
2022-09-23T09:13:04.539Z,2.20
2022-09-23T09:15:43.199Z,2.10
2022-09-23T09:18:21.620Z,2.60
2022-09-23T09:21:32.716Z,2.20
2022-09-23T09:24:03.093Z,2.00
2022-09-23T09:26:35.790Z,2.00
2022-09-23T09:29:34.736Z,2.20
2022-09-23T09:32:35.928Z,2.20
2022-09-23T09:35:26.130Z,1.80
2022-09-23T09:37:56.218Z,2.40
2022-09-23T09:40:25.860Z,2.60
2022-09-23T09:42:55.065Z,3.00
2022-09-23T09:45:24.384Z,2.70
2022-09-23T09:48:20.911Z,2.50
2022-09-23T09:50:52.195Z,3.00
2022-09-23T09:53:22.555Z,2.60
2022-09-23T09:56:08.656Z,3.00
2022-09-23T09:58:49.247Z,2.70
2022-09-23T10:01:33.149Z,3.10
2022-09-23T10:04:06.034Z,2.90
2022-09-23T10:06:36.226Z,3.70
2022-09-23T10:09:21.785Z,4.00
2022-09-23T10:12:26.050Z,5.10
2022-09-23T10:14:57.903Z,4.30
2022-09-23T10:17:34.559Z,4.00
2022-09-23T10:20:15.171Z,3.40
2022-09-23T10:22:44.031Z,3.90
2022-09-23T10:25:27.865Z,4.00
2022-09-23T10:27:56.616Z,4.10
2022-09-23T10:30:28.479Z,4.20
2022-09-23T10:32:57.583Z,4.20
2022-09-23T10:35:28.413Z,4.00
2022-09-23T10:38:00.303Z,4.60
2022-09-23T10:41:02.241Z,3.50
2022-09-23T10:44:15.107Z,4.10
2022-09-23T10:47:21.002Z,3.60
2022-09-23T10:50:10.269Z,3.40
2022-09-23T10:52:56.473Z,4.10
2022-09-23T10:55:47.178Z,3.60
2022-09-23T10:58:33.292Z,4.10
2022-09-23T11:01:39.856Z,4.10
2022-09-23T11:04:52.771Z,4.40
2022-09-23T11:07:37.350Z,4.50
2022-09-23T11:10:23.195Z,4.60
2022-09-23T11:13:24.776Z,4.10
2022-09-23T11:16:02.669Z,4.20
2022-09-23T11:18:58.371Z,5.10
2022-09-23T11:22:01.628Z,5.50
2022-09-23T11:24:34.196Z,4.90
2022-09-23T11:27:11.811Z,4.60
2022-09-23T11:30:11.457Z,5.00
2022-09-23T11:33:06.424Z,4.00
2022-09-23T11:35:41.976Z,5.10
2022-09-23T11:38:37.951Z,4.70
2022-09-23T11:41:26.031Z,4.70
2022-09-23T11:44:31.477Z,4.50
2022-09-23T11:47:22.341Z,4.10
2022-09-23T11:50:07.662Z,4.50
2022-09-23T11:53:21.908Z,4.70
2022-09-23T11:56:01.179Z,4.60
2022-09-23T11:59:39.424Z,5.00
2022-09-23T12:03:03.994Z,6.40
2022-09-23T12:05:48.882Z,6.60
2022-09-23T12:08:45.626Z,4.50
2022-09-23T12:11:22.095Z,7.00
2022-09-23T12:14:19.457Z,4.70
2022-09-23T12:17:12.656Z,4.70
2022-09-23T12:20:22.766Z,4.80
2022-09-23T12:23:09.899Z,4.80
2022-09-23T12:25:48.588Z,6.30
2022-09-23T12:28:23.719Z,5.60
2022-09-23T12:30:56.211Z,4.80
2022-09-23T12:33:31.277Z,5.00
2022-09-23T12:36:08.087Z,4.70
2022-09-23T12:38:51.605Z,4.90
2022-09-23T12:41:24.347Z,4.90
2022-09-23T12:44:14.191Z,5.00
2022-09-23T12:46:45.557Z,4.90
2022-09-23T12:49:29.495Z,5.30
2022-09-23T12:52:25.375Z,5.50
2022-09-23T12:55:24.575Z,4.90
2022-09-23T12:57:53.613Z,5.30
2022-09-23T13:00:29.834Z,5.30
2022-09-23T13:03:19.704Z,5.60
2022-09-23T13:06:11.234Z,5.70
2022-09-23T13:08:42.038Z,5.70
2022-09-23T13:11:29.723Z,6.30
2022-09-23T13:14:03.017Z,5.70
2022-09-23T13:16:45.951Z,5.90
2022-09-23T13:19:41.232Z,5.50
2022-09-23T13:22:11.421Z,6.10
2022-09-23T13:24:46.530Z,6.40
2022-09-23T13:27:31.249Z,7.80
2022-09-23T13:30:26.123Z,5.30
2022-09-23T13:33:12.969Z,5.40
2022-09-23T13:35:51.064Z,5.30
2022-09-23T13:38:32.155Z,5.10
2022-09-23T13:41:08.102Z,4.50
2022-09-23T13:43:41.609Z,5.70
2022-09-23T13:46:20.834Z,4.70
2022-09-23T13:48:56.614Z,7.80
2022-09-23T13:51:32.302Z,5.00
2022-09-23T13:54:03.574Z,6.70
2022-09-23T13:56:35.455Z,5.50
2022-09-23T13:59:42.521Z,5.80
2022-09-23T14:02:20.181Z,4.20
2022-09-23T14:04:49.645Z,4.60
2022-09-23T14:07:20.112Z,4.40
2022-09-23T14:09:52.670Z,4.30
2022-09-23T14:12:24.862Z,4.20
2022-09-23T14:14:53.718Z,4.20
2022-09-23T14:17:23.225Z,4.20
2022-09-23T14:19:52.137Z,4.50
2022-09-23T14:22:27.425Z,4.20
2022-09-23T14:24:57.044Z,6.30
2022-09-23T14:27:31.396Z,3.40
2022-09-23T14:30:02.474Z,7.10
2022-09-23T14:32:33.406Z,7.00
2022-09-23T14:35:04.787Z,6.80
2022-09-23T14:37:56.914Z,7.40
2022-09-23T14:40:34.185Z,4.90
2022-09-23T14:43:05.775Z,4.90
2022-09-23T14:45:38.151Z,4.10
2022-09-23T14:48:15.912Z,4.20
2022-09-23T14:50:52.079Z,4.10
2022-09-23T14:53:22.650Z,4.20
2022-09-23T14:55:57.498Z,4.10
2022-09-23T14:58:31.029Z,4.00
2022-09-23T15:01:01.747Z,5.70
2022-09-23T15:03:30.484Z,4.30
2022-09-23T15:06:09.467Z,4.10
2022-09-23T15:08:43.730Z,4.20
2022-09-23T15:11:13.200Z,4.20
2022-09-23T15:13:49.505Z,7.90
2022-09-23T15:16:26.245Z,4.30
2022-09-23T15:18:59.290Z,4.70
2022-09-23T15:21:48.057Z,5.60
2022-09-23T15:24:36.633Z,4.40
2022-09-23T15:27:31.310Z,5.60
2022-09-23T15:30:20.085Z,6.00
2022-09-23T15:32:48.779Z,5.10
2022-09-23T15:35:26.865Z,4.40
2022-09-23T15:38:03.506Z,4.50
2022-09-23T15:40:37.305Z,2.60
2022-09-23T15:43:22.788Z,3.10
2022-09-23T15:45:58.563Z,1.90
2022-09-23T15:48:37.266Z,1.50
2022-09-23T15:51:10.104Z,2.00
2022-09-23T15:53:38.779Z,1.60
2022-09-23T15:56:07.566Z,1.70
2022-09-23T15:58:36.097Z,2.00
2022-09-23T16:01:05.565Z,2.10
2022-09-23T16:03:34.289Z,2.50
2022-09-23T16:06:04.400Z,2.20
2022-09-23T16:08:33.421Z,2.20
2022-09-23T16:11:02.237Z,2.90
2022-09-23T16:13:30.855Z,4.40
2022-09-23T16:15:59.460Z,6.20
2022-09-23T16:18:28.977Z,6.60
2022-09-23T16:20:59.234Z,7.60
2022-09-23T16:23:37.732Z,4.90
2022-09-23T16:26:07.754Z,11.00
2022-09-23T16:28:36.507Z,6.60
2022-09-23T16:31:05.592Z,4.40
2022-09-23T16:33:34.418Z,5.50
2022-09-23T16:36:06.127Z,3.80
2022-09-23T16:38:35.004Z,3.40
2022-09-23T16:41:03.819Z,3.60
2022-09-23T16:43:35.141Z,4.50
2022-09-23T16:48:32.296Z,3.80
2022-09-23T16:51:05.100Z,4.60
2022-09-23T16:53:35.101Z,4.10
2022-09-23T16:56:09.741Z,3.40
2022-09-23T16:58:40.232Z,3.60
2022-09-23T17:01:33.242Z,3.50
2022-09-23T17:04:02.311Z,3.50
2022-09-23T17:06:30.769Z,3.90
2022-09-23T17:08:59.487Z,3.90
2022-09-23T17:11:33.992Z,4.20
2022-09-23T17:14:03.472Z,4.20
2022-09-23T17:16:34.158Z,4.50
2022-09-23T17:19:08.420Z,3.40
2022-09-23T17:21:38.205Z,3.90
2022-09-23T17:24:07.616Z,4.00
2022-09-23T17:26:36.583Z,3.70
2022-09-23T17:29:05.789Z,3.60
2022-09-23T17:31:35.167Z,3.70
2022-09-23T17:34:04.158Z,2.80
2022-09-23T17:36:32.843Z,3.40
2022-09-23T17:39:01.712Z,3.10
2022-09-23T17:41:30.495Z,4.10
2022-09-23T17:44:00.677Z,4.10
2022-09-23T17:46:31.147Z,4.40
2022-09-23T17:49:01.269Z,4.20
2022-09-23T17:51:30.363Z,3.80
2022-09-23T17:53:59.216Z,4.30
2022-09-23T17:56:31.677Z,4.00
2022-09-23T17:59:02.361Z,4.40
2022-09-23T18:01:31.571Z,4.30
2022-09-23T18:04:05.743Z,3.50
2022-09-23T18:06:37.507Z,3.30
2022-09-23T18:09:08.817Z,4.00
2022-09-23T18:14:18.690Z,3.90
2022-09-23T18:16:53.865Z,3.80
2022-09-23T18:19:24.789Z,3.20
2022-09-23T18:21:56.621Z,3.70
2022-09-23T18:24:32.239Z,3.70
2022-09-23T18:27:01.978Z,5.00
2022-09-23T18:29:31.763Z,3.90
2022-09-23T18:32:00.353Z,3.50
2022-09-23T18:34:30.769Z,3.10
2022-09-23T18:36:59.398Z,3.40
2022-09-23T18:39:28.685Z,4.00
2022-09-23T18:41:57.213Z,5.00
2022-09-23T18:44:25.813Z,4.40
2022-09-23T18:46:54.364Z,4.70
2022-09-23T18:49:41.118Z,4.80
2022-09-23T18:52:09.975Z,4.90
2022-09-23T18:54:38.485Z,5.20
2022-09-23T18:57:07.809Z,5.30
2022-09-23T18:59:36.506Z,6.20
2022-09-23T19:02:05.271Z,5.30
2022-09-23T19:04:33.948Z,6.40
2022-09-23T19:07:02.956Z,6.50
2022-09-23T19:09:31.499Z,6.00
2022-09-23T19:12:01.047Z,6.30
2022-09-23T19:14:29.781Z,7.10
2022-09-23T19:16:59.100Z,6.40
2022-09-23T19:19:30.244Z,5.00
2022-09-23T19:21:59.172Z,5.00
2022-09-23T19:24:28.231Z,3.70
2022-09-23T19:26:56.881Z,3.90
2022-09-23T19:29:25.556Z,4.10
2022-09-23T19:31:54.242Z,4.80
2022-09-23T19:34:26.188Z,4.40
2022-09-23T19:36:57.571Z,4.70
2022-09-23T19:39:31.729Z,4.50
2022-09-23T19:42:00.433Z,4.30
2022-09-23T19:44:29.800Z,4.30
2022-09-23T19:46:58.988Z,4.40
2022-09-23T19:49:28.099Z,4.70
2022-09-23T19:51:57.082Z,4.40
2022-09-23T19:54:27.780Z,4.20
2022-09-23T19:56:56.612Z,3.90
2022-09-23T19:59:26.664Z,4.20
2022-09-23T20:01:55.711Z,3.90
2022-09-23T20:04:24.666Z,3.60
2022-09-23T20:06:53.774Z,4.20
2022-09-23T20:09:22.660Z,3.90
2022-09-23T20:11:52.441Z,4.40
2022-09-23T20:14:22.690Z,3.80
2022-09-23T20:16:52.180Z,4.50
2022-09-23T20:19:20.807Z,4.40
2022-09-23T20:22:09.322Z,4.10
2022-09-23T20:24:38.060Z,4.00
2022-09-23T20:27:09.634Z,4.10
2022-09-23T20:29:38.315Z,4.40
2022-09-23T20:32:06.970Z,4.60
2022-09-23T20:34:35.670Z,4.60
2022-09-23T20:37:05.786Z,4.60
2022-09-23T20:39:34.188Z,4.40
2022-09-23T20:42:03.229Z,5.00
2022-09-23T20:44:35.753Z,4.60
2022-09-23T20:47:04.469Z,4.70
2022-09-23T20:49:35.109Z,5.80
2022-09-23T20:52:03.667Z,5.30
2022-09-23T20:54:32.655Z,4.30
2022-09-23T20:57:01.429Z,5.10
2022-09-23T20:59:30.513Z,4.70
2022-09-23T21:01:59.258Z,5.00
2022-09-23T21:04:29.288Z,5.80
2022-09-23T21:06:58.578Z,4.90
2022-09-23T21:09:29.132Z,5.30
2022-09-23T21:11:57.688Z,5.10
2022-09-23T21:14:26.243Z,5.10
2022-09-23T21:16:57.537Z,5.30
2022-09-23T21:19:34.347Z,4.50
2022-09-23T21:22:04.799Z,5.00
2022-09-23T21:25:12.173Z,4.80
2022-09-23T21:27:23.014Z,4.60
2022-09-23T21:29:51.619Z,4.90
2022-09-23T21:32:20.221Z,4.90
2022-09-23T21:34:49.172Z,5.20
2022-09-23T21:37:17.736Z,4.90
2022-09-23T21:40:06.373Z,5.50
2022-09-23T21:42:35.625Z,5.40
2022-09-23T21:45:05.333Z,6.00
2022-09-23T21:47:34.048Z,5.40
2022-09-23T21:50:03.092Z,5.30
2022-09-23T21:52:31.558Z,5.50
2022-09-23T21:55:00.260Z,5.70
2022-09-23T21:57:30.918Z,5.50
2022-09-23T21:59:59.531Z,5.30
2022-09-23T22:02:28.049Z,5.30
2022-09-23T22:04:56.485Z,4.90
2022-09-23T22:07:25.100Z,5.60
2022-09-23T22:09:53.552Z,5.60
2022-09-23T22:12:22.203Z,5.70
2022-09-23T22:14:51.865Z,5.80
2022-09-23T22:17:21.417Z,5.80
2022-09-23T22:19:51.527Z,5.50
2022-09-23T22:22:20.137Z,5.80
2022-09-23T22:24:49.164Z,5.90
2022-09-23T22:27:19.871Z,7.40
2022-09-23T22:30:06.778Z,6.60
2022-09-23T22:32:41.341Z,5.90
2022-09-23T22:35:18.752Z,5.70
2022-09-23T22:37:48.583Z,5.80
2022-09-23T22:40:17.309Z,4.90
2022-09-23T22:42:46.447Z,5.30
2022-09-23T22:45:15.341Z,5.80
2022-09-23T22:47:45.836Z,5.40
2022-09-23T22:50:15.502Z,5.40
2022-09-23T22:52:45.128Z,5.30
2022-09-23T22:55:13.832Z,5.20
2022-09-23T22:57:42.473Z,5.60
2022-09-23T23:00:12.572Z,6.20
2022-09-23T23:02:42.646Z,5.40
2022-09-23T23:05:11.742Z,6.20
2022-09-23T23:07:41.393Z,6.10
2022-09-23T23:10:10.543Z,6.40
2022-09-23T23:12:40.336Z,5.60
2022-09-23T23:15:12.909Z,5.40
2022-09-23T23:17:43.874Z,4.90
2022-09-23T23:20:12.533Z,5.30
2022-09-23T23:22:41.187Z,5.90
2022-09-23T23:25:10.063Z,4.50
2022-09-23T23:27:38.768Z,5.30
2022-09-23T23:30:08.782Z,5.20
2022-09-23T23:32:37.810Z,5.00
2022-09-23T23:35:07.025Z,5.50
2022-09-23T23:37:35.580Z,5.10
2022-09-23T23:40:05.516Z,5.10
2022-09-23T23:42:34.830Z,5.50
2022-09-23T23:47:39.514Z,5.40
2022-09-23T23:50:09.459Z,5.60
2022-09-23T23:52:36.904Z,5.20
2022-09-23T23:55:04.750Z,5.20
2022-09-23T23:57:31.970Z,4.90
2022-09-23T23:59:59.326Z,4.90
